createdAt,value
2023-01-07T00:01:51.308Z,25.03
2023-01-07T00:04:23.640Z,22.43
2023-01-07T00:06:52.871Z,19.90
2023-01-07T00:09:19.875Z,18.20
2023-01-07T00:11:51.700Z,26.07
2023-01-07T00:14:18.749Z,23.17
2023-01-07T00:16:45.800Z,20.83
2023-01-07T00:19:16.677Z,31.67
2023-01-07T00:21:45.729Z,28.43
2023-01-07T00:24:18.247Z,21.90
2023-01-07T00:26:45.490Z,22.17
2023-01-07T00:29:12.829Z,32.73
2023-01-07T00:31:44.302Z,27.73
2023-01-07T00:34:11.677Z,19.70
2023-01-07T00:36:46.773Z,19.67
2023-01-07T00:39:23.023Z,31.50
2023-01-07T00:42:09.558Z,42.20
2023-01-07T00:44:38.922Z,28.30
2023-01-07T00:47:08.510Z,32.27
2023-01-07T00:49:40.352Z,28.83
2023-01-07T00:52:07.250Z,30.00
2023-01-07T00:54:34.725Z,33.73
2023-01-07T00:57:01.904Z,34.60
2023-01-07T00:59:28.841Z,32.47
2023-01-07T01:01:56.397Z,30.97
2023-01-07T01:04:23.523Z,39.53
2023-01-07T01:06:53.120Z,36.33
2023-01-07T01:09:21.608Z,33.40
2023-01-07T01:11:48.808Z,38.07
2023-01-07T01:14:17.825Z,42.57
2023-01-07T01:16:47.288Z,35.97
2023-01-07T01:19:17.351Z,38.47
2023-01-07T01:21:47.350Z,40.17
2023-01-07T01:24:14.210Z,37.70
2023-01-07T01:26:43.310Z,42.87
2023-01-07T01:29:12.727Z,50.83
2023-01-07T01:31:39.907Z,45.77
2023-01-07T01:34:06.779Z,43.73
2023-01-07T01:36:33.765Z,41.17
2023-01-07T01:39:00.998Z,39.07
2023-01-07T01:41:28.047Z,42.07
2023-01-07T01:43:57.151Z,50.63
2023-01-07T01:46:44.422Z,44.37
2023-01-07T01:49:36.598Z,41.20
2023-01-07T01:52:13.239Z,43.23
2023-01-07T01:54:48.085Z,40.77
2023-01-07T01:57:17.112Z,41.23
2023-01-07T01:59:50.611Z,50.43
2023-01-07T02:02:26.496Z,43.77
2023-01-07T02:04:55.282Z,50.20
2023-01-07T02:07:22.375Z,48.30
2023-01-07T02:10:21.039Z,46.40
2023-01-07T02:13:06.379Z,46.60
2023-01-07T02:15:45.213Z,47.10
2023-01-07T02:18:49.353Z,41.47
2023-01-07T02:22:23.753Z,49.20
2023-01-07T02:25:09.133Z,40.50
2023-01-07T02:27:53.282Z,42.00
2023-01-07T02:30:56.811Z,47.07
2023-01-07T02:33:52.535Z,46.77
2023-01-07T02:36:58.415Z,44.83
2023-01-07T02:39:43.364Z,44.00
2023-01-07T02:42:28.918Z,45.57
2023-01-07T02:45:39.383Z,43.63
2023-01-07T02:48:10.046Z,44.93
2023-01-07T02:50:38.945Z,42.83
2023-01-07T02:53:10.863Z,52.47
2023-01-07T02:56:14.594Z,40.30
2023-01-07T02:59:50.244Z,39.33
2023-01-07T03:02:30.959Z,45.07
2023-01-07T03:05:21.281Z,48.10
2023-01-07T03:08:03.039Z,38.60
2023-01-07T03:10:40.913Z,42.00
2023-01-07T03:13:17.906Z,43.43
2023-01-07T03:16:04.760Z,39.97
2023-01-07T03:18:55.950Z,36.57
2023-01-07T03:21:29.832Z,40.67
2023-01-07T03:23:58.692Z,38.10
2023-01-07T03:26:32.739Z,41.70
2023-01-07T03:29:02.160Z,44.43
2023-01-07T03:31:30.907Z,39.20
2023-01-07T03:34:09.648Z,42.73
2023-01-07T03:36:49.212Z,42.97
2023-01-07T03:39:20.288Z,42.87
2023-01-07T03:42:11.676Z,35.87
2023-01-07T03:44:42.400Z,44.70
2023-01-07T03:47:12.436Z,40.20
2023-01-07T03:49:39.980Z,49.43
2023-01-07T03:52:06.973Z,39.93
2023-01-07T03:54:36.549Z,47.67
2023-01-07T03:57:05.955Z,39.00
2023-01-07T03:59:32.819Z,38.47
2023-01-07T04:02:02.462Z,35.70
2023-01-07T04:04:32.442Z,36.63
2023-01-07T04:06:59.491Z,38.40
2023-01-07T04:09:26.467Z,43.10
2023-01-07T04:11:53.641Z,35.23
2023-01-07T04:14:20.504Z,33.40
2023-01-07T04:16:47.525Z,38.53
2023-01-07T04:19:14.510Z,31.23
2023-01-07T04:21:41.327Z,32.60
2023-01-07T04:24:10.857Z,40.37
2023-01-07T04:26:37.692Z,33.63
2023-01-07T04:29:04.586Z,32.97
2023-01-07T04:31:33.739Z,33.50
2023-01-07T04:34:05.559Z,36.87
2023-01-07T04:36:32.450Z,37.80
2023-01-07T04:38:59.267Z,39.63
2023-01-07T04:41:26.196Z,34.00
2023-01-07T04:43:53.047Z,37.53
2023-01-07T04:46:19.987Z,34.47
2023-01-07T04:48:46.892Z,33.93
2023-01-07T04:51:13.805Z,33.83
2023-01-07T04:53:43.278Z,39.40
2023-01-07T04:56:10.077Z,40.43
2023-01-07T04:58:37.108Z,35.07
2023-01-07T05:01:09.134Z,38.70
2023-01-07T05:03:39.161Z,32.70
2023-01-07T05:06:09.396Z,32.03
2023-01-07T05:08:36.264Z,36.73
2023-01-07T05:11:05.880Z,31.03
2023-01-07T05:13:38.241Z,35.27
2023-01-07T05:16:07.779Z,40.40
2023-01-07T05:18:34.596Z,34.77
2023-01-07T05:21:01.506Z,31.90
2023-01-07T05:23:28.353Z,32.33
2023-01-07T05:25:57.446Z,31.10
2023-01-07T05:28:24.396Z,27.13
2023-01-07T05:30:53.768Z,36.27
2023-01-07T05:33:23.286Z,27.60
2023-01-07T05:35:52.698Z,27.67
2023-01-07T05:38:21.812Z,29.47
2023-01-07T05:40:49.992Z,26.30
2023-01-07T05:43:21.390Z,25.70
2023-01-07T05:45:50.786Z,27.10
2023-01-07T05:48:17.682Z,25.80
2023-01-07T05:50:44.492Z,25.10
2023-01-07T05:53:13.665Z,23.70
2023-01-07T05:55:45.072Z,33.37
2023-01-07T05:58:12.012Z,24.67
2023-01-07T06:00:39.017Z,24.23
2023-01-07T06:03:08.431Z,20.13
2023-01-07T06:05:35.403Z,21.13
2023-01-07T06:08:02.317Z,32.37
2023-01-07T06:10:29.368Z,21.93
2023-01-07T06:12:56.330Z,19.47
2023-01-07T06:15:23.328Z,18.73
2023-01-07T06:17:53.461Z,18.83
2023-01-07T06:20:22.981Z,17.87
2023-01-07T06:22:50.459Z,18.30
2023-01-07T06:25:17.475Z,19.00
2023-01-07T06:27:47.301Z,18.60
2023-01-07T06:30:14.339Z,15.63
2023-01-07T06:32:43.470Z,17.23
2023-01-07T06:35:14.416Z,18.67
2023-01-07T06:37:41.457Z,18.60
2023-01-07T06:40:12.431Z,18.40
2023-01-07T06:42:39.598Z,15.70
2023-01-07T06:45:07.198Z,18.90
2023-01-07T06:47:34.346Z,17.67
2023-01-07T06:50:04.640Z,17.93
2023-01-07T06:52:31.551Z,15.53
2023-01-07T06:54:58.544Z,15.27
2023-01-07T06:57:25.554Z,17.37
2023-01-07T06:59:54.744Z,14.07
2023-01-07T07:02:25.810Z,17.87
2023-01-07T07:04:53.238Z,14.83
2023-01-07T07:07:20.773Z,16.13
2023-01-07T07:09:48.250Z,14.93
2023-01-07T07:12:15.301Z,16.63
2023-01-07T07:14:44.487Z,15.03
2023-01-07T07:17:11.541Z,19.07
2023-01-07T07:19:38.505Z,15.40
2023-01-07T07:22:05.405Z,17.40
2023-01-07T07:24:32.366Z,17.60
2023-01-07T07:27:00.230Z,18.83
2023-01-07T07:29:31.824Z,17.10
2023-01-07T07:31:58.880Z,16.77
2023-01-07T07:34:28.237Z,18.37
2023-01-07T07:36:55.111Z,23.67
2023-01-07T07:39:24.059Z,25.43
2023-01-07T07:41:50.948Z,18.63
2023-01-07T07:44:20.746Z,17.40
2023-01-07T07:46:47.672Z,20.83
2023-01-07T07:49:16.935Z,18.07
2023-01-07T07:51:44.055Z,15.27
2023-01-07T07:54:12.971Z,20.50
2023-01-07T07:56:44.419Z,15.30
2023-01-07T07:59:11.456Z,16.53
2023-01-07T08:01:40.845Z,16.60
2023-01-07T08:04:07.875Z,19.73
2023-01-07T08:06:37.203Z,13.70
2023-01-07T08:09:04.195Z,13.33
2023-01-07T08:11:33.279Z,12.87
2023-01-07T08:14:02.972Z,13.93
2023-01-07T08:16:34.539Z,15.40
2023-01-07T08:19:01.422Z,13.57
2023-01-07T08:21:31.024Z,13.33
2023-01-07T08:23:57.945Z,18.47
2023-01-07T08:26:24.948Z,11.30
2023-01-07T08:28:52.000Z,11.33
2023-01-07T08:31:19.041Z,11.10
2023-01-07T08:33:48.362Z,9.90
2023-01-07T08:36:23.513Z,10.87
2023-01-07T08:38:55.305Z,9.60
2023-01-07T08:41:24.220Z,8.80
2023-01-07T08:43:51.618Z,9.20
2023-01-07T08:46:18.531Z,9.40
2023-01-07T08:48:45.443Z,7.80
2023-01-07T08:51:14.939Z,8.27
2023-01-07T08:53:41.933Z,6.93
2023-01-07T08:56:09.077Z,7.43
2023-01-07T08:58:35.949Z,6.67
2023-01-07T09:01:05.768Z,6.50
2023-01-07T09:03:35.395Z,7.10
2023-01-07T09:06:02.399Z,5.70
2023-01-07T09:08:29.261Z,5.90
2023-01-07T09:10:56.317Z,5.67
2023-01-07T09:13:25.486Z,6.57
2023-01-07T09:15:53.193Z,5.73
2023-01-07T09:18:20.947Z,4.90
2023-01-07T09:20:47.895Z,5.67
2023-01-07T09:23:17.792Z,4.97
2023-01-07T09:25:46.873Z,7.30
2023-01-07T09:28:13.720Z,3.73
2023-01-07T09:30:40.643Z,5.67
2023-01-07T09:33:09.990Z,3.33
2023-01-07T09:35:37.038Z,3.70
2023-01-07T09:38:06.162Z,6.57
2023-01-07T09:40:39.221Z,2.70
2023-01-07T09:43:21.196Z,2.67
2023-01-07T09:45:53.298Z,2.27
2023-01-07T09:48:39.755Z,2.60
2023-01-07T09:51:20.038Z,2.20
2023-01-07T09:53:53.869Z,2.57
2023-01-07T09:56:24.544Z,2.50
2023-01-07T09:58:52.041Z,2.30
2023-01-07T10:01:44.873Z,3.17
2023-01-07T10:04:42.257Z,2.97
2023-01-07T10:08:31.188Z,2.50
2023-01-07T10:10:57.456Z,2.10
2023-01-07T10:14:03.807Z,2.03
2023-01-07T10:16:49.166Z,1.80
2023-01-07T10:19:43.588Z,1.87
2023-01-07T10:22:23.362Z,1.80
2023-01-07T10:24:59.165Z,1.40
2023-01-07T10:27:47.059Z,1.70
2023-01-07T10:30:23.346Z,1.60
2023-01-07T10:32:59.328Z,1.70
2023-01-07T10:35:30.289Z,4.60
2023-01-07T10:38:04.807Z,1.90
2023-01-07T10:40:42.812Z,2.30
2023-01-07T10:43:50.063Z,1.90
2023-01-07T10:46:53.091Z,2.20
2023-01-07T10:49:40.996Z,2.10
2023-01-07T10:52:34.417Z,2.70
2023-01-07T10:55:37.760Z,4.23
2023-01-07T10:58:07.349Z,2.37
2023-01-07T11:00:34.255Z,2.17
2023-01-07T11:03:03.686Z,2.23
2023-01-07T11:05:39.061Z,2.67
2023-01-07T11:08:26.411Z,7.40
2023-01-07T11:10:53.637Z,3.97
2023-01-07T11:13:29.702Z,3.90
2023-01-07T11:16:10.264Z,5.83
2023-01-07T11:18:55.732Z,6.00
2023-01-07T11:21:48.929Z,9.30
2023-01-07T11:24:36.485Z,3.03
2023-01-07T11:27:16.559Z,1.80
2023-01-07T11:29:46.184Z,2.03
2023-01-07T11:32:38.392Z,3.60
2023-01-07T11:35:22.732Z,2.23
2023-01-07T11:37:52.627Z,2.63
2023-01-07T11:40:23.787Z,2.43
2023-01-07T11:42:54.412Z,1.87
2023-01-07T11:45:27.407Z,2.23
2023-01-07T11:48:06.214Z,1.97
2023-01-07T11:50:41.196Z,5.40
2023-01-07T11:53:16.170Z,2.63
2023-01-07T11:56:07.704Z,1.83
2023-01-07T11:58:39.864Z,1.37
2023-01-07T12:01:12.478Z,1.77
2023-01-07T12:03:53.968Z,1.93
2023-01-07T12:06:27.118Z,2.00
2023-01-07T12:09:26.099Z,11.27
2023-01-07T12:11:56.754Z,2.53
2023-01-07T12:14:34.859Z,5.33
2023-01-07T12:17:19.357Z,1.70
2023-01-07T12:20:21.387Z,2.50
2023-01-07T12:23:32.633Z,3.70
2023-01-07T12:26:11.938Z,2.37
2023-01-07T12:29:08.558Z,2.57
2023-01-07T12:32:20.312Z,2.50
2023-01-07T12:34:55.917Z,2.00
2023-01-07T12:37:37.297Z,2.43
2023-01-07T12:40:19.166Z,2.30
2023-01-07T12:43:03.259Z,2.40
2023-01-07T12:45:42.722Z,2.70
2023-01-07T12:48:23.660Z,2.47
2023-01-07T12:50:55.255Z,2.60
2023-01-07T12:53:49.098Z,3.00
2023-01-07T12:56:34.797Z,2.30
2023-01-07T12:59:55.853Z,4.50
2023-01-07T13:02:48.212Z,4.30
2023-01-07T13:05:38.516Z,4.03
2023-01-07T13:08:40.861Z,1.70
2023-01-07T13:12:03.999Z,2.20
2023-01-07T13:14:46.137Z,9.50
2023-01-07T13:17:28.314Z,2.20
2023-01-07T13:19:58.273Z,1.77
2023-01-07T13:22:33.953Z,3.60
2023-01-07T13:25:28.177Z,3.90
2023-01-07T13:28:07.579Z,3.70
2023-01-07T13:31:01.896Z,1.77
2023-01-07T13:33:40.443Z,1.53
2023-01-07T13:36:27.034Z,1.80
2023-01-07T13:39:15.382Z,1.93
2023-01-07T13:42:19.299Z,1.40
2023-01-07T13:45:01.908Z,1.93
2023-01-07T13:47:47.432Z,2.00
2023-01-07T13:50:20.568Z,3.53
2023-01-07T13:53:02.012Z,11.10
2023-01-07T13:55:32.434Z,1.60
2023-01-07T13:57:59.398Z,2.37
2023-01-07T14:00:48.398Z,3.97
2023-01-07T14:03:27.359Z,2.50
2023-01-07T14:06:21.900Z,2.97
2023-01-07T14:08:51.348Z,1.70
2023-01-07T14:11:44.312Z,2.43
2023-01-07T14:14:22.387Z,2.10
2023-01-07T14:17:11.846Z,2.23
2023-01-07T14:20:24.034Z,1.80
2023-01-07T14:23:34.337Z,2.40
2023-01-07T14:26:18.218Z,2.10
2023-01-07T14:29:12.868Z,1.90
2023-01-07T14:31:39.880Z,1.40
2023-01-07T14:34:17.923Z,1.77
2023-01-07T14:37:05.047Z,1.40
2023-01-07T14:39:34.978Z,1.57
2023-01-07T14:42:43.559Z,2.87
2023-01-07T14:45:41.572Z,3.33
2023-01-07T14:48:08.624Z,2.97
2023-01-07T14:50:57.202Z,2.70
2023-01-07T14:53:57.090Z,1.63
2023-01-07T14:56:34.695Z,4.10
2023-01-07T14:59:32.751Z,2.60
2023-01-07T15:02:33.801Z,2.07
2023-01-07T15:05:43.783Z,2.13
2023-01-07T15:08:37.836Z,1.90
2023-01-07T15:11:32.074Z,2.20
2023-01-07T15:14:37.051Z,1.20
2023-01-07T15:17:07.206Z,1.60
2023-01-07T15:19:41.208Z,1.63
2023-01-07T15:22:35.400Z,1.73
2023-01-07T15:25:09.843Z,2.00
2023-01-07T15:28:06.846Z,1.60
2023-01-07T15:30:55.562Z,1.63
2023-01-07T15:33:48.464Z,1.80
2023-01-07T15:36:16.322Z,1.90
2023-01-07T15:38:54.165Z,2.00
2023-01-07T15:41:28.870Z,6.93
2023-01-07T15:43:59.341Z,3.93
2023-01-07T15:46:29.675Z,3.43
2023-01-07T15:49:08.402Z,1.93
2023-01-07T15:51:41.706Z,4.53
2023-01-07T15:54:31.859Z,7.63
2023-01-07T15:57:13.129Z,2.43
2023-01-07T15:59:48.038Z,2.60
2023-01-07T16:02:42.750Z,2.73
2023-01-07T16:05:10.779Z,1.40
2023-01-07T16:08:03.155Z,2.70
2023-01-07T16:10:36.569Z,1.93
2023-01-07T16:13:20.850Z,1.80
2023-01-07T16:15:58.562Z,2.07
2023-01-07T16:18:25.486Z,4.00
2023-01-07T16:21:12.901Z,1.43
2023-01-07T16:23:40.861Z,1.30
2023-01-07T16:26:19.711Z,1.53
2023-01-07T16:28:56.866Z,1.40
2023-01-07T16:31:26.510Z,1.40
2023-01-07T16:33:57.430Z,2.40
2023-01-07T16:36:30.526Z,1.63
2023-01-07T16:39:03.885Z,1.20
2023-01-07T16:41:31.712Z,1.30
2023-01-07T16:44:04.408Z,1.50
2023-01-07T16:46:35.985Z,3.13
2023-01-07T16:49:21.253Z,1.07
2023-01-07T16:51:52.762Z,1.60
2023-01-07T16:54:25.725Z,1.90
2023-01-07T16:56:56.974Z,1.40
2023-01-07T16:59:38.373Z,1.07
2023-01-07T17:02:40.646Z,3.70
2023-01-07T17:05:33.724Z,1.80
2023-01-07T17:08:05.762Z,1.30
2023-01-07T17:10:37.735Z,1.20
2023-01-07T17:13:33.472Z,1.10
2023-01-07T17:16:36.823Z,3.03
2023-01-07T17:19:26.080Z,2.67
2023-01-07T17:21:54.527Z,1.43
2023-01-07T17:24:46.215Z,2.93
2023-01-07T17:27:29.849Z,3.73
2023-01-07T17:29:56.928Z,2.00
2023-01-07T17:32:26.044Z,1.40
2023-01-07T17:34:57.653Z,1.10
2023-01-07T17:37:24.577Z,1.90
2023-01-07T17:39:53.884Z,2.00
2023-01-07T17:42:50.347Z,1.20
2023-01-07T17:45:19.918Z,2.73
2023-01-07T17:47:49.593Z,1.67
2023-01-07T17:50:24.322Z,2.90
2023-01-07T17:52:55.899Z,2.33
2023-01-07T17:55:30.435Z,1.30
2023-01-07T17:58:02.332Z,2.43
2023-01-07T18:00:33.072Z,1.80
2023-01-07T18:03:00.060Z,1.47
2023-01-07T18:05:27.304Z,1.30
2023-01-07T18:07:54.264Z,1.60
2023-01-07T18:10:28.685Z,1.20
2023-01-07T18:12:55.521Z,10.43
2023-01-07T18:15:27.242Z,3.27
2023-01-07T18:17:58.675Z,2.00
2023-01-07T18:20:30.114Z,2.30
2023-01-07T18:22:56.964Z,4.30
2023-01-07T18:25:23.987Z,1.90
2023-01-07T18:27:53.337Z,2.80
2023-01-07T18:30:21.998Z,4.00
2023-01-07T18:32:51.238Z,5.30
2023-01-07T18:35:22.629Z,2.23
2023-01-07T18:37:50.394Z,2.07
2023-01-07T18:40:19.890Z,2.90
2023-01-07T18:42:47.235Z,3.83
2023-01-07T18:45:16.744Z,3.00
2023-01-07T18:47:43.755Z,3.13
2023-01-07T18:50:16.167Z,3.23
2023-01-07T18:52:45.733Z,3.00
2023-01-07T18:55:19.324Z,3.40
2023-01-07T18:57:49.215Z,3.10
2023-01-07T19:00:16.955Z,3.90
2023-01-07T19:02:46.285Z,3.47
2023-01-07T19:05:13.615Z,2.53
2023-01-07T19:07:41.457Z,2.40
2023-01-07T19:10:11.635Z,3.53
2023-01-07T19:12:38.776Z,2.67
2023-01-07T19:15:06.645Z,2.73
2023-01-07T19:17:38.373Z,4.33
2023-01-07T19:20:06.465Z,2.60
2023-01-07T19:22:34.443Z,2.77
2023-01-07T19:25:01.806Z,2.70
2023-01-07T19:27:28.874Z,3.00
2023-01-07T19:29:55.911Z,3.23
2023-01-07T19:32:22.883Z,2.80
2023-01-07T19:34:52.385Z,2.60
2023-01-07T19:37:22.519Z,3.53
2023-01-07T19:39:52.695Z,2.30
2023-01-07T19:42:19.722Z,2.67
2023-01-07T19:44:49.254Z,2.10
2023-01-07T19:47:18.748Z,8.23
2023-01-07T19:49:45.748Z,2.27
2023-01-07T19:52:13.785Z,2.50
2023-01-07T19:54:41.781Z,2.50
2023-01-07T19:57:11.370Z,1.87
2023-01-07T19:59:40.437Z,2.93
2023-01-07T20:02:07.836Z,3.47
2023-01-07T20:04:34.934Z,3.40
2023-01-07T20:07:02.119Z,1.63
2023-01-07T20:09:29.045Z,5.73
2023-01-07T20:11:55.856Z,2.30
2023-01-07T20:14:22.762Z,2.70
2023-01-07T20:16:49.642Z,2.40
2023-01-07T20:19:18.399Z,2.20
2023-01-07T20:21:46.730Z,2.13
2023-01-07T20:24:16.136Z,2.63
2023-01-07T20:26:43.205Z,2.90
2023-01-07T20:29:10.053Z,2.23
2023-01-07T20:31:40.095Z,2.43
2023-01-07T20:34:07.192Z,2.87
2023-01-07T20:36:36.377Z,4.03
2023-01-07T20:39:06.475Z,2.47
2023-01-07T20:41:36.028Z,2.50
2023-01-07T20:44:08.648Z,2.97
2023-01-07T20:46:35.613Z,2.97
2023-01-07T20:49:05.322Z,2.93
2023-01-07T20:51:32.283Z,4.10
2023-01-07T20:54:01.743Z,3.87
2023-01-07T20:56:32.667Z,3.07
2023-01-07T20:59:01.187Z,3.60
2023-01-07T21:01:30.731Z,3.60
2023-01-07T21:03:58.322Z,2.60
2023-01-07T21:06:25.703Z,2.20
2023-01-07T21:08:56.933Z,2.70
2023-01-07T21:11:29.720Z,2.97
2023-01-07T21:13:56.887Z,8.60
2023-01-07T21:16:28.408Z,4.53
2023-01-07T21:18:58.207Z,2.60
2023-01-07T21:21:25.725Z,2.97
2023-01-07T21:23:54.256Z,1.90
2023-01-07T21:26:23.944Z,2.60
2023-01-07T21:28:55.952Z,2.27
2023-01-07T21:31:23.674Z,2.60
2023-01-07T21:33:56.876Z,2.70
2023-01-07T21:36:25.906Z,3.03
2023-01-07T21:38:59.213Z,2.67
2023-01-07T21:41:28.275Z,2.80
2023-01-07T21:43:56.558Z,2.97
2023-01-07T21:46:23.950Z,3.30
2023-01-07T21:48:51.976Z,2.83
2023-01-07T21:51:25.713Z,2.87
2023-01-07T21:53:57.831Z,3.57
2023-01-07T21:56:28.668Z,3.53
2023-01-07T21:58:55.650Z,3.07
2023-01-07T22:01:28.489Z,3.33
2023-01-07T22:04:00.531Z,3.13
2023-01-07T22:06:33.794Z,2.53
2023-01-07T22:09:08.185Z,3.17
2023-01-07T22:11:41.447Z,2.83
2023-01-07T22:14:13.868Z,3.00
2023-01-07T22:16:40.949Z,2.90
2023-01-07T22:19:09.955Z,2.80
2023-01-07T22:21:37.221Z,2.40
2023-01-07T22:24:04.863Z,3.10
2023-01-07T22:26:36.431Z,2.80
2023-01-07T22:29:07.678Z,3.80
2023-01-07T22:31:37.103Z,3.80
2023-01-07T22:34:06.398Z,9.43
2023-01-07T22:37:07.392Z,3.60
2023-01-07T22:39:44.422Z,3.27
2023-01-07T22:42:34.842Z,4.10
2023-01-07T22:45:16.585Z,3.73
2023-01-07T22:47:49.034Z,3.77
2023-01-07T22:50:17.346Z,3.63
2023-01-07T22:52:44.633Z,3.40
2023-01-07T22:55:14.180Z,2.60
2023-01-07T22:57:42.011Z,3.03
2023-01-07T23:00:41.369Z,3.60
2023-01-07T23:03:10.849Z,2.73
2023-01-07T23:05:39.900Z,2.80
2023-01-07T23:08:07.475Z,3.93
2023-01-07T23:10:39.970Z,3.03
2023-01-07T23:13:07.644Z,2.60
2023-01-07T23:15:36.601Z,2.63
2023-01-07T23:18:12.147Z,4.20
2023-01-07T23:20:43.280Z,2.30
2023-01-07T23:23:11.882Z,3.03
2023-01-07T23:25:49.275Z,3.43
2023-01-07T23:28:18.057Z,3.23
2023-01-07T23:30:45.345Z,2.70
2023-01-07T23:33:14.707Z,4.63
2023-01-07T23:35:41.683Z,4.50
2023-01-07T23:38:11.084Z,2.97
2023-01-07T23:40:38.231Z,2.77
2023-01-07T23:43:05.159Z,2.97
2023-01-07T23:45:32.269Z,3.10
2023-01-07T23:48:01.941Z,2.90
2023-01-07T23:50:29.091Z,2.57
2023-01-07T23:52:58.624Z,2.70
2023-01-07T23:55:28.106Z,2.40
2023-01-07T23:57:57.615Z,2.97
